sensor_id;sensor_type;location;lat;lon;timestamp;P1;durP1;ratioP1;P2;durP2;ratioP2
66721;SDS011;53633;49.932;10.884;2024-02-26T00:02:29;8.63;;;3.28;;
66721;SDS011;53633;49.932;10.884;2024-02-26T00:11:40;8.97;;;2.23;;
66721;SDS011;53633;49.932;10.884;2024-02-26T00:14:27;7.30;;;2.80;;
66721;SDS011;53633;49.932;10.884;2024-02-26T00:17:11;7.30;;;3.03;;
66721;SDS011;53633;49.932;10.884;2024-02-26T00:20:07;7.13;;;2.55;;
66721;SDS011;53633;49.932;10.884;2024-02-26T00:23:15;7.55;;;3.00;;
66721;SDS011;53633;49.932;10.884;2024-02-26T00:38:20;7.55;;;2.58;;
66721;SDS011;53633;49.932;10.884;2024-02-26T00:41:02;7.13;;;2.17;;
66721;SDS011;53633;49.932;10.884;2024-02-26T00:43:56;8.65;;;2.40;;
66721;SDS011;53633;49.932;10.884;2024-02-26T00:59:36;7.90;;;2.42;;
66721;SDS011;53633;49.932;10.884;2024-02-26T01:02:21;7.60;;;2.47;;
66721;SDS011;53633;49.932;10.884;2024-02-26T01:08:51;8.05;;;2.63;;
66721;SDS011;53633;49.932;10.884;2024-02-26T01:11:42;6.03;;;2.17;;
66721;SDS011;53633;49.932;10.884;2024-02-26T01:18:38;6.20;;;2.05;;
66721;SDS011;53633;49.932;10.884;2024-02-26T01:21:21;8.95;;;2.50;;
66721;SDS011;53633;49.932;10.884;2024-02-26T01:24:38;9.90;;;2.25;;
66721;SDS011;53633;49.932;10.884;2024-02-26T01:28:03;8.60;;;2.33;;
66721;SDS011;53633;49.932;10.884;2024-02-26T01:37:17;6.90;;;2.30;;
66721;SDS011;53633;49.932;10.884;2024-02-26T01:39:46;7.40;;;2.63;;
66721;SDS011;53633;49.932;10.884;2024-02-26T01:42:27;7.50;;;2.07;;
66721;SDS011;53633;49.932;10.884;2024-02-26T01:45:13;7.38;;;2.60;;
66721;SDS011;53633;49.932;10.884;2024-02-26T01:47:56;7.90;;;2.50;;
66721;SDS011;53633;49.932;10.884;2024-02-26T01:50:38;7.07;;;2.17;;
66721;SDS011;53633;49.932;10.884;2024-02-26T01:56:35;6.60;;;1.87;;
66721;SDS011;53633;49.932;10.884;2024-02-26T01:59:43;5.88;;;1.85;;
66721;SDS011;53633;49.932;10.884;2024-02-26T02:05:52;5.97;;;1.90;;
66721;SDS011;53633;49.932;10.884;2024-02-26T02:18:56;7.78;;;2.20;;
66721;SDS011;53633;49.932;10.884;2024-02-26T02:27:44;6.23;;;1.80;;
66721;SDS011;53633;49.932;10.884;2024-02-26T02:30:51;5.57;;;1.85;;
66721;SDS011;53633;49.932;10.884;2024-02-26T02:36:59;7.07;;;1.80;;
66721;SDS011;53633;49.932;10.884;2024-02-26T02:45:36;6.07;;;2.03;;
66721;SDS011;53633;49.932;10.884;2024-02-26T02:51:17;6.57;;;1.90;;
66721;SDS011;53633;49.932;10.884;2024-02-26T02:57:48;7.30;;;1.80;;
66721;SDS011;53633;49.932;10.884;2024-02-26T03:01:09;8.98;;;1.55;;
66721;SDS011;53633;49.932;10.884;2024-02-26T03:04:15;7.95;;;2.28;;
66721;SDS011;53633;49.932;10.884;2024-02-26T03:07:01;6.45;;;2.05;;
66721;SDS011;53633;49.932;10.884;2024-02-26T03:09:46;7.63;;;2.10;;
66721;SDS011;53633;49.932;10.884;2024-02-26T03:12:29;5.47;;;1.80;;
66721;SDS011;53633;49.932;10.884;2024-02-26T03:15:13;5.90;;;1.63;;
66721;SDS011;53633;49.932;10.884;2024-02-26T03:36:53;6.47;;;1.95;;
66721;SDS011;53633;49.932;10.884;2024-02-26T03:42:35;5.20;;;1.63;;
66721;SDS011;53633;49.932;10.884;2024-02-26T03:45:20;7.43;;;2.28;;
66721;SDS011;53633;49.932;10.884;2024-02-26T03:51:43;7.80;;;2.08;;
66721;SDS011;53633;49.932;10.884;2024-02-26T03:54:48;7.05;;;1.80;;
66721;SDS011;53633;49.932;10.884;2024-02-26T04:04:06;7.28;;;2.30;;
66721;SDS011;53633;49.932;10.884;2024-02-26T04:07:06;6.72;;;2.33;;
66721;SDS011;53633;49.932;10.884;2024-02-26T04:51:24;6.93;;;2.42;;
66721;SDS011;53633;49.932;10.884;2024-02-26T04:57:17;6.88;;;2.20;;
66721;SDS011;53633;49.932;10.884;2024-02-26T05:00:17;8.10;;;2.20;;
66721;SDS011;53633;49.932;10.884;2024-02-26T05:03:19;6.35;;;2.00;;
66721;SDS011;53633;49.932;10.884;2024-02-26T05:06:03;7.32;;;2.17;;
66721;SDS011;53633;49.932;10.884;2024-02-26T05:12:02;9.35;;;2.58;;
66721;SDS011;53633;49.932;10.884;2024-02-26T05:14:44;6.73;;;2.37;;
66721;SDS011;53633;49.932;10.884;2024-02-26T05:17:41;7.47;;;2.60;;
66721;SDS011;53633;49.932;10.884;2024-02-26T05:20:33;8.55;;;2.65;;
66721;SDS011;53633;49.932;10.884;2024-02-26T05:23:20;7.22;;;2.25;;
66721;SDS011;53633;49.932;10.884;2024-02-26T05:26:19;9.02;;;2.90;;
66721;SDS011;53633;49.932;10.884;2024-02-26T05:51:26;7.68;;;2.75;;
66721;SDS011;53633;49.932;10.884;2024-02-26T05:54:14;8.88;;;3.25;;
66721;SDS011;53633;49.932;10.884;2024-02-26T06:00:54;11.43;;;3.03;;
66721;SDS011;53633;49.932;10.884;2024-02-26T06:04:12;9.43;;;2.97;;
66721;SDS011;53633;49.932;10.884;2024-02-26T06:06:39;8.70;;;3.05;;
66721;SDS011;53633;49.932;10.884;2024-02-26T06:09:09;8.45;;;2.72;;
66721;SDS011;53633;49.932;10.884;2024-02-26T06:11:36;7.78;;;2.70;;
66721;SDS011;53633;49.932;10.884;2024-02-26T06:14:03;8.57;;;2.90;;
66721;SDS011;53633;49.932;10.884;2024-02-26T06:16:30;9.32;;;2.90;;
66721;SDS011;53633;49.932;10.884;2024-02-26T06:18:58;7.63;;;2.50;;
66721;SDS011;53633;49.932;10.884;2024-02-26T06:21:26;8.55;;;2.90;;
66721;SDS011;53633;49.932;10.884;2024-02-26T06:23:53;8.15;;;2.50;;
66721;SDS011;53633;49.932;10.884;2024-02-26T06:26:23;10.67;;;2.93;;
66721;SDS011;53633;49.932;10.884;2024-02-26T06:28:50;9.93;;;3.50;;
66721;SDS011;53633;49.932;10.884;2024-02-26T06:31:18;7.35;;;2.80;;
66721;SDS011;53633;49.932;10.884;2024-02-26T06:33:45;7.85;;;2.83;;
66721;SDS011;53633;49.932;10.884;2024-02-26T06:36:12;11.35;;;3.30;;
66721;SDS011;53633;49.932;10.884;2024-02-26T06:38:44;10.43;;;3.40;;
66721;SDS011;53633;49.932;10.884;2024-02-26T06:41:11;10.27;;;3.20;;
66721;SDS011;53633;49.932;10.884;2024-02-26T06:43:40;8.38;;;3.10;;
66721;SDS011;53633;49.932;10.884;2024-02-26T06:46:07;10.18;;;3.10;;
66721;SDS011;53633;49.932;10.884;2024-02-26T06:48:36;10.27;;;2.95;;
66721;SDS011;53633;49.932;10.884;2024-02-26T06:51:04;8.77;;;3.63;;
66721;SDS011;53633;49.932;10.884;2024-02-26T06:53:31;10.32;;;3.63;;
66721;SDS011;53633;49.932;10.884;2024-02-26T06:55:59;9.43;;;3.78;;
66721;SDS011;53633;49.932;10.884;2024-02-26T06:58:26;10.20;;;4.03;;
66721;SDS011;53633;49.932;10.884;2024-02-26T07:00:53;9.13;;;3.63;;
66721;SDS011;53633;49.932;10.884;2024-02-26T07:03:20;9.67;;;2.93;;
66721;SDS011;53633;49.932;10.884;2024-02-26T07:05:47;10.65;;;3.60;;
66721;SDS011;53633;49.932;10.884;2024-02-26T07:08:14;8.32;;;3.33;;
66721;SDS011;53633;49.932;10.884;2024-02-26T07:10:43;10.30;;;2.88;;
66721;SDS011;53633;49.932;10.884;2024-02-26T07:13:12;9.15;;;3.45;;
66721;SDS011;53633;49.932;10.884;2024-02-26T07:15:39;12.60;;;4.30;;
66721;SDS011;53633;49.932;10.884;2024-02-26T07:18:06;11.63;;;3.88;;
66721;SDS011;53633;49.932;10.884;2024-02-26T07:20:33;13.35;;;4.72;;
66721;SDS011;53633;49.932;10.884;2024-02-26T07:23:00;14.77;;;4.97;;
66721;SDS011;53633;49.932;10.884;2024-02-26T07:25:28;11.32;;;4.57;;
66721;SDS011;53633;49.932;10.884;2024-02-26T07:27:57;13.40;;;4.17;;
66721;SDS011;53633;49.932;10.884;2024-02-26T07:30:25;12.65;;;3.85;;
66721;SDS011;53633;49.932;10.884;2024-02-26T07:32:53;9.88;;;3.55;;
66721;SDS011;53633;49.932;10.884;2024-02-26T07:35:20;13.77;;;6.05;;
66721;SDS011;53633;49.932;10.884;2024-02-26T07:37:48;13.30;;;5.63;;
66721;SDS011;53633;49.932;10.884;2024-02-26T07:40:15;12.30;;;4.13;;
66721;SDS011;53633;49.932;10.884;2024-02-26T07:42:42;11.18;;;4.10;;
66721;SDS011;53633;49.932;10.884;2024-02-26T07:45:12;11.00;;;3.78;;
66721;SDS011;53633;49.932;10.884;2024-02-26T07:47:51;10.35;;;3.85;;
66721;SDS011;53633;49.932;10.884;2024-02-26T07:50:18;9.23;;;3.33;;
66721;SDS011;53633;49.932;10.884;2024-02-26T07:52:47;8.67;;;2.90;;
66721;SDS011;53633;49.932;10.884;2024-02-26T07:55:17;12.25;;;3.80;;
66721;SDS011;53633;49.932;10.884;2024-02-26T07:57:44;9.27;;;4.20;;
66721;SDS011;53633;49.932;10.884;2024-02-26T08:00:11;13.65;;;4.28;;
66721;SDS011;53633;49.932;10.884;2024-02-26T08:02:39;12.35;;;5.03;;
66721;SDS011;53633;49.932;10.884;2024-02-26T08:05:09;10.00;;;4.17;;
66721;SDS011;53633;49.932;10.884;2024-02-26T08:07:38;12.98;;;4.32;;
66721;SDS011;53633;49.932;10.884;2024-02-26T08:10:06;10.95;;;4.68;;
66721;SDS011;53633;49.932;10.884;2024-02-26T08:12:35;12.55;;;4.78;;
66721;SDS011;53633;49.932;10.884;2024-02-26T08:15:06;11.10;;;4.10;;
66721;SDS011;53633;49.932;10.884;2024-02-26T08:17:34;10.33;;;4.57;;
66721;SDS011;53633;49.932;10.884;2024-02-26T08:20:03;12.98;;;4.80;;
66721;SDS011;53633;49.932;10.884;2024-02-26T08:22:33;12.32;;;4.55;;
66721;SDS011;53633;49.932;10.884;2024-02-26T08:25:00;12.00;;;4.50;;
66721;SDS011;53633;49.932;10.884;2024-02-26T08:27:28;13.82;;;4.82;;
66721;SDS011;53633;49.932;10.884;2024-02-26T08:30:00;10.10;;;3.90;;
66721;SDS011;53633;49.932;10.884;2024-02-26T08:32:30;10.70;;;5.03;;
66721;SDS011;53633;49.932;10.884;2024-02-26T08:35:01;13.02;;;4.47;;
66721;SDS011;53633;49.932;10.884;2024-02-26T08:37:28;11.60;;;4.03;;
66721;SDS011;53633;49.932;10.884;2024-02-26T08:39:58;11.18;;;3.67;;
66721;SDS011;53633;49.932;10.884;2024-02-26T08:42:31;10.33;;;3.27;;
66721;SDS011;53633;49.932;10.884;2024-02-26T08:44:58;9.20;;;3.33;;
66721;SDS011;53633;49.932;10.884;2024-02-26T08:47:32;8.77;;;3.00;;
66721;SDS011;53633;49.932;10.884;2024-02-26T08:49:59;11.55;;;3.33;;
66721;SDS011;53633;49.932;10.884;2024-02-26T08:52:26;12.10;;;3.90;;
66721;SDS011;53633;49.932;10.884;2024-02-26T08:54:54;11.50;;;3.50;;
66721;SDS011;53633;49.932;10.884;2024-02-26T08:57:53;10.05;;;3.88;;
66721;SDS011;53633;49.932;10.884;2024-02-26T09:00:21;13.23;;;5.28;;
66721;SDS011;53633;49.932;10.884;2024-02-26T09:02:49;15.57;;;5.07;;
66721;SDS011;53633;49.932;10.884;2024-02-26T09:05:22;14.27;;;5.60;;
66721;SDS011;53633;49.932;10.884;2024-02-26T09:07:59;11.17;;;3.93;;
66721;SDS011;53633;49.932;10.884;2024-02-26T09:10:28;11.48;;;4.18;;
66721;SDS011;53633;49.932;10.884;2024-02-26T09:12:56;10.07;;;3.72;;
66721;SDS011;53633;49.932;10.884;2024-02-26T09:15:27;9.52;;;3.65;;
66721;SDS011;53633;49.932;10.884;2024-02-26T09:17:54;10.27;;;4.13;;
66721;SDS011;53633;49.932;10.884;2024-02-26T09:20:22;10.60;;;4.37;;
66721;SDS011;53633;49.932;10.884;2024-02-26T09:22:49;12.68;;;4.30;;
66721;SDS011;53633;49.932;10.884;2024-02-26T09:25:19;11.20;;;4.28;;
66721;SDS011;53633;49.932;10.884;2024-02-26T09:27:47;10.40;;;3.72;;
66721;SDS011;53633;49.932;10.884;2024-02-26T09:30:17;9.32;;;3.63;;
66721;SDS011;53633;49.932;10.884;2024-02-26T09:32:46;9.60;;;3.67;;
66721;SDS011;53633;49.932;10.884;2024-02-26T09:35:13;10.15;;;3.83;;
66721;SDS011;53633;49.932;10.884;2024-02-26T09:37:40;12.10;;;3.90;;
66721;SDS011;53633;49.932;10.884;2024-02-26T09:40:07;10.70;;;3.83;;
66721;SDS011;53633;49.932;10.884;2024-02-26T09:42:35;9.05;;;3.83;;
66721;SDS011;53633;49.932;10.884;2024-02-26T09:45:05;8.70;;;3.33;;
66721;SDS011;53633;49.932;10.884;2024-02-26T09:47:36;9.98;;;4.15;;
66721;SDS011;53633;49.932;10.884;2024-02-26T09:50:05;10.10;;;3.92;;
66721;SDS011;53633;49.932;10.884;2024-02-26T09:52:35;9.90;;;4.00;;
66721;SDS011;53633;49.932;10.884;2024-02-26T09:55:05;9.75;;;3.65;;
66721;SDS011;53633;49.932;10.884;2024-02-26T10:00:24;9.73;;;3.63;;
66721;SDS011;53633;49.932;10.884;2024-02-26T10:02:54;8.63;;;3.50;;
66721;SDS011;53633;49.932;10.884;2024-02-26T10:05:21;8.57;;;3.53;;
66721;SDS011;53633;49.932;10.884;2024-02-26T10:07:52;9.02;;;3.15;;
66721;SDS011;53633;49.932;10.884;2024-02-26T10:10:19;10.00;;;3.40;;
66721;SDS011;53633;49.932;10.884;2024-02-26T10:12:47;9.43;;;3.88;;
66721;SDS011;53633;49.932;10.884;2024-02-26T10:15:15;9.48;;;4.00;;
66721;SDS011;53633;49.932;10.884;2024-02-26T10:17:44;9.65;;;3.97;;
66721;SDS011;53633;49.932;10.884;2024-02-26T10:20:11;10.98;;;3.88;;
66721;SDS011;53633;49.932;10.884;2024-02-26T10:22:39;11.27;;;4.07;;
66721;SDS011;53633;49.932;10.884;2024-02-26T10:25:07;11.48;;;3.75;;
66721;SDS011;53633;49.932;10.884;2024-02-26T10:27:38;10.77;;;3.95;;
66721;SDS011;53633;49.932;10.884;2024-02-26T10:30:29;9.30;;;3.97;;
66721;SDS011;53633;49.932;10.884;2024-02-26T10:32:59;8.30;;;3.45;;
66721;SDS011;53633;49.932;10.884;2024-02-26T10:35:30;8.90;;;3.67;;
66721;SDS011;53633;49.932;10.884;2024-02-26T10:38:00;8.65;;;3.20;;
66721;SDS011;53633;49.932;10.884;2024-02-26T10:40:27;8.02;;;3.42;;
66721;SDS011;53633;49.932;10.884;2024-02-26T10:42:57;9.00;;;3.10;;
66721;SDS011;53633;49.932;10.884;2024-02-26T10:45:24;8.63;;;2.70;;
66721;SDS011;53633;49.932;10.884;2024-02-26T10:47:51;8.87;;;3.30;;
66721;SDS011;53633;49.932;10.884;2024-02-26T10:50:23;9.20;;;3.30;;
66721;SDS011;53633;49.932;10.884;2024-02-26T10:52:53;8.05;;;3.22;;
66721;SDS011;53633;49.932;10.884;2024-02-26T10:55:21;9.27;;;3.53;;
66721;SDS011;53633;49.932;10.884;2024-02-26T10:57:50;7.75;;;3.42;;
66721;SDS011;53633;49.932;10.884;2024-02-26T11:00:19;10.10;;;3.80;;
66721;SDS011;53633;49.932;10.884;2024-02-26T11:02:48;9.80;;;3.50;;
66721;SDS011;53633;49.932;10.884;2024-02-26T11:05:17;8.90;;;4.00;;
66721;SDS011;53633;49.932;10.884;2024-02-26T11:07:46;9.82;;;3.42;;
66721;SDS011;53633;49.932;10.884;2024-02-26T11:10:17;8.25;;;3.45;;
66721;SDS011;53633;49.932;10.884;2024-02-26T11:12:44;8.40;;;3.37;;
66721;SDS011;53633;49.932;10.884;2024-02-26T11:15:13;7.50;;;3.10;;
66721;SDS011;53633;49.932;10.884;2024-02-26T11:17:42;6.88;;;2.67;;
66721;SDS011;53633;49.932;10.884;2024-02-26T11:20:12;7.15;;;2.42;;
66721;SDS011;53633;49.932;10.884;2024-02-26T11:22:56;7.63;;;2.45;;
66721;SDS011;53633;49.932;10.884;2024-02-26T11:25:23;8.53;;;2.63;;
66721;SDS011;53633;49.932;10.884;2024-02-26T11:27:53;7.18;;;2.67;;
66721;SDS011;53633;49.932;10.884;2024-02-26T11:30:21;6.53;;;2.38;;
66721;SDS011;53633;49.932;10.884;2024-02-26T11:32:50;6.63;;;2.63;;
66721;SDS011;53633;49.932;10.884;2024-02-26T11:35:19;6.38;;;2.55;;
66721;SDS011;53633;49.932;10.884;2024-02-26T11:37:53;6.47;;;2.13;;
66721;SDS011;53633;49.932;10.884;2024-02-26T11:40:23;6.53;;;1.98;;
66721;SDS011;53633;49.932;10.884;2024-02-26T11:42:51;7.03;;;2.50;;
66721;SDS011;53633;49.932;10.884;2024-02-26T11:48:20;6.68;;;2.03;;
66721;SDS011;53633;49.932;10.884;2024-02-26T11:50:50;7.43;;;2.20;;
66721;SDS011;53633;49.932;10.884;2024-02-26T11:53:24;6.38;;;2.10;;
66721;SDS011;53633;49.932;10.884;2024-02-26T11:58:46;6.20;;;2.10;;
66721;SDS011;53633;49.932;10.884;2024-02-26T12:04:11;6.20;;;2.20;;
66721;SDS011;53633;49.932;10.884;2024-02-26T12:06:40;6.65;;;2.50;;
66721;SDS011;53633;49.932;10.884;2024-02-26T12:09:12;8.75;;;2.33;;
66721;SDS011;53633;49.932;10.884;2024-02-26T12:11:42;6.30;;;2.30;;
66721;SDS011;53633;49.932;10.884;2024-02-26T12:14:10;6.72;;;2.28;;
66721;SDS011;53633;49.932;10.884;2024-02-26T12:16:39;6.23;;;2.43;;
66721;SDS011;53633;49.932;10.884;2024-02-26T12:19:10;6.60;;;2.00;;
66721;SDS011;53633;49.932;10.884;2024-02-26T12:21:38;6.47;;;2.05;;
66721;SDS011;53633;49.932;10.884;2024-02-26T12:24:12;6.85;;;2.20;;
66721;SDS011;53633;49.932;10.884;2024-02-26T12:26:43;6.05;;;2.30;;
66721;SDS011;53633;49.932;10.884;2024-02-26T12:29:10;7.20;;;2.10;;
66721;SDS011;53633;49.932;10.884;2024-02-26T12:31:37;5.28;;;2.00;;
66721;SDS011;53633;49.932;10.884;2024-02-26T12:34:06;5.72;;;2.40;;
66721;SDS011;53633;49.932;10.884;2024-02-26T12:36:34;5.97;;;1.98;;
66721;SDS011;53633;49.932;10.884;2024-02-26T12:39:01;6.70;;;2.30;;
66721;SDS011;53633;49.932;10.884;2024-02-26T12:41:28;6.40;;;2.27;;
66721;SDS011;53633;49.932;10.884;2024-02-26T12:44:00;6.22;;;1.95;;
66721;SDS011;53633;49.932;10.884;2024-02-26T12:46:31;6.38;;;1.98;;
66721;SDS011;53633;49.932;10.884;2024-02-26T12:48:58;6.05;;;1.80;;
66721;SDS011;53633;49.932;10.884;2024-02-26T12:51:27;6.22;;;2.00;;
66721;SDS011;53633;49.932;10.884;2024-02-26T12:53:55;6.37;;;1.60;;
66721;SDS011;53633;49.932;10.884;2024-02-26T12:56:23;5.30;;;1.63;;
66721;SDS011;53633;49.932;10.884;2024-02-26T12:58:50;5.10;;;1.55;;
66721;SDS011;53633;49.932;10.884;2024-02-26T13:01:23;6.22;;;1.20;;
66721;SDS011;53633;49.932;10.884;2024-02-26T13:03:53;4.22;;;1.38;;
66721;SDS011;53633;49.932;10.884;2024-02-26T13:06:20;4.97;;;1.33;;
66721;SDS011;53633;49.932;10.884;2024-02-26T13:08:48;4.80;;;1.40;;
66721;SDS011;53633;49.932;10.884;2024-02-26T13:11:15;4.93;;;1.40;;
66721;SDS011;53633;49.932;10.884;2024-02-26T13:13:47;7.70;;;2.78;;
66721;SDS011;53633;49.932;10.884;2024-02-26T13:16:16;5.15;;;1.98;;
66721;SDS011;53633;49.932;10.884;2024-02-26T13:18:45;6.10;;;1.90;;
66721;SDS011;53633;49.932;10.884;2024-02-26T13:21:12;4.05;;;1.13;;
66721;SDS011;53633;49.932;10.884;2024-02-26T13:23:45;4.05;;;1.02;;
66721;SDS011;53633;49.932;10.884;2024-02-26T13:26:15;4.57;;;1.48;;
66721;SDS011;53633;49.932;10.884;2024-02-26T13:28:42;5.70;;;1.95;;
66721;SDS011;53633;49.932;10.884;2024-02-26T13:31:08;4.37;;;1.33;;
66721;SDS011;53633;49.932;10.884;2024-02-26T13:33:38;4.68;;;1.08;;
66721;SDS011;53633;49.932;10.884;2024-02-26T13:36:07;4.47;;;1.38;;
66721;SDS011;53633;49.932;10.884;2024-02-26T13:38:37;4.93;;;1.30;;
66721;SDS011;53633;49.932;10.884;2024-02-26T13:41:07;4.15;;;1.20;;
66721;SDS011;53633;49.932;10.884;2024-02-26T13:43:34;4.00;;;1.20;;
66721;SDS011;53633;49.932;10.884;2024-02-26T13:46:01;4.55;;;1.23;;
66721;SDS011;53633;49.932;10.884;2024-02-26T13:48:31;6.63;;;1.60;;
66721;SDS011;53633;49.932;10.884;2024-02-26T13:51:00;3.97;;;1.10;;
66721;SDS011;53633;49.932;10.884;2024-02-26T13:53:30;4.35;;;1.50;;
66721;SDS011;53633;49.932;10.884;2024-02-26T13:56:04;4.43;;;1.30;;
66721;SDS011;53633;49.932;10.884;2024-02-26T13:58:31;3.72;;;1.27;;
66721;SDS011;53633;49.932;10.884;2024-02-26T14:00:59;4.45;;;1.40;;
66721;SDS011;53633;49.932;10.884;2024-02-26T14:03:26;5.28;;;1.30;;
66721;SDS011;53633;49.932;10.884;2024-02-26T14:05:54;4.90;;;1.40;;
66721;SDS011;53633;49.932;10.884;2024-02-26T14:08:23;4.53;;;1.03;;
66721;SDS011;53633;49.932;10.884;2024-02-26T14:10:52;4.55;;;1.33;;
66721;SDS011;53633;49.932;10.884;2024-02-26T14:13:21;4.18;;;0.90;;
66721;SDS011;53633;49.932;10.884;2024-02-26T14:15:48;7.38;;;1.50;;
66721;SDS011;53633;49.932;10.884;2024-02-26T14:18:19;4.20;;;1.10;;
66721;SDS011;53633;49.932;10.884;2024-02-26T14:20:47;6.20;;;1.33;;
66721;SDS011;53633;49.932;10.884;2024-02-26T14:23:14;4.25;;;1.10;;
66721;SDS011;53633;49.932;10.884;2024-02-26T14:25:41;4.90;;;1.52;;
66721;SDS011;53633;49.932;10.884;2024-02-26T14:28:16;3.95;;;1.20;;
66721;SDS011;53633;49.932;10.884;2024-02-26T14:30:51;3.85;;;1.10;;
66721;SDS011;53633;49.932;10.884;2024-02-26T14:33:19;5.13;;;1.43;;
66721;SDS011;53633;49.932;10.884;2024-02-26T14:35:48;5.05;;;1.27;;
66721;SDS011;53633;49.932;10.884;2024-02-26T14:38:15;5.30;;;1.38;;
66721;SDS011;53633;49.932;10.884;2024-02-26T14:40:45;3.90;;;1.08;;
66721;SDS011;53633;49.932;10.884;2024-02-26T14:43:20;4.65;;;1.83;;
66721;SDS011;53633;49.932;10.884;2024-02-26T14:45:50;3.70;;;0.90;;
66721;SDS011;53633;49.932;10.884;2024-02-26T14:48:24;4.38;;;0.90;;
66721;SDS011;53633;49.932;10.884;2024-02-26T14:50:57;4.40;;;1.20;;
66721;SDS011;53633;49.932;10.884;2024-02-26T14:53:24;5.43;;;1.15;;
66721;SDS011;53633;49.932;10.884;2024-02-26T14:55:51;5.35;;;1.60;;
66721;SDS011;53633;49.932;10.884;2024-02-26T14:58:26;6.77;;;1.90;;
66721;SDS011;53633;49.932;10.884;2024-02-26T15:00:53;8.25;;;3.05;;
66721;SDS011;53633;49.932;10.884;2024-02-26T15:03:20;7.85;;;2.67;;
66721;SDS011;53633;49.932;10.884;2024-02-26T15:05:47;6.05;;;1.67;;
66721;SDS011;53633;49.932;10.884;2024-02-26T15:08:14;5.93;;;2.08;;
66721;SDS011;53633;49.932;10.884;2024-02-26T15:10:41;5.97;;;1.70;;
66721;SDS011;53633;49.932;10.884;2024-02-26T15:13:08;5.40;;;2.08;;
66721;SDS011;53633;49.932;10.884;2024-02-26T15:15:37;5.65;;;1.60;;
66721;SDS011;53633;49.932;10.884;2024-02-26T15:18:04;4.80;;;1.30;;
66721;SDS011;53633;49.932;10.884;2024-02-26T15:20:31;6.70;;;1.95;;
66721;SDS011;53633;49.932;10.884;2024-02-26T15:22:59;5.93;;;1.70;;
66721;SDS011;53633;49.932;10.884;2024-02-26T15:25:27;4.60;;;1.58;;
66721;SDS011;53633;49.932;10.884;2024-02-26T15:27:54;5.53;;;1.60;;
66721;SDS011;53633;49.932;10.884;2024-02-26T15:30:24;6.03;;;1.80;;
66721;SDS011;53633;49.932;10.884;2024-02-26T15:33:02;5.07;;;1.85;;
66721;SDS011;53633;49.932;10.884;2024-02-26T15:35:32;5.90;;;1.90;;
66721;SDS011;53633;49.932;10.884;2024-02-26T15:38:00;5.82;;;1.60;;
66721;SDS011;53633;49.932;10.884;2024-02-26T15:40:29;5.05;;;1.50;;
66721;SDS011;53633;49.932;10.884;2024-02-26T15:42:56;5.05;;;1.77;;
66721;SDS011;53633;49.932;10.884;2024-02-26T15:45:27;6.38;;;3.20;;
66721;SDS011;53633;49.932;10.884;2024-02-26T15:47:57;5.50;;;1.67;;
66721;SDS011;53633;49.932;10.884;2024-02-26T15:50:25;5.88;;;1.58;;
66721;SDS011;53633;49.932;10.884;2024-02-26T15:52:54;5.38;;;2.00;;
66721;SDS011;53633;49.932;10.884;2024-02-26T15:55:21;5.68;;;1.50;;
66721;SDS011;53633;49.932;10.884;2024-02-26T15:57:51;5.10;;;1.80;;
66721;SDS011;53633;49.932;10.884;2024-02-26T16:00:18;5.50;;;1.73;;
66721;SDS011;53633;49.932;10.884;2024-02-26T16:02:48;7.20;;;2.13;;
66721;SDS011;53633;49.932;10.884;2024-02-26T16:05:18;5.40;;;1.35;;
66721;SDS011;53633;49.932;10.884;2024-02-26T16:07:53;5.57;;;1.75;;
66721;SDS011;53633;49.932;10.884;2024-02-26T16:10:23;4.80;;;1.63;;
66721;SDS011;53633;49.932;10.884;2024-02-26T16:12:51;7.73;;;1.47;;
66721;SDS011;53633;49.932;10.884;2024-02-26T16:15:20;5.65;;;1.85;;
66721;SDS011;53633;49.932;10.884;2024-02-26T16:17:51;53.75;;;6.70;;
66721;SDS011;53633;49.932;10.884;2024-02-26T16:20:24;40.00;;;4.43;;
66721;SDS011;53633;49.932;10.884;2024-02-26T16:22:57;36.55;;;5.60;;
66721;SDS011;53633;49.932;10.884;2024-02-26T16:25:25;27.97;;;3.43;;
66721;SDS011;53633;49.932;10.884;2024-02-26T16:27:52;13.55;;;2.40;;
66721;SDS011;53633;49.932;10.884;2024-02-26T16:30:19;16.75;;;2.63;;
66721;SDS011;53633;49.932;10.884;2024-02-26T16:32:46;15.25;;;2.33;;
66721;SDS011;53633;49.932;10.884;2024-02-26T16:35:13;8.02;;;2.10;;
66721;SDS011;53633;49.932;10.884;2024-02-26T16:37:48;5.70;;;1.90;;
66721;SDS011;53633;49.932;10.884;2024-02-26T16:40:15;7.78;;;2.17;;
66721;SDS011;53633;49.932;10.884;2024-02-26T16:42:42;8.32;;;2.55;;
66721;SDS011;53633;49.932;10.884;2024-02-26T16:45:11;7.20;;;2.40;;
66721;SDS011;53633;49.932;10.884;2024-02-26T16:47:38;7.68;;;2.90;;
66721;SDS011;53633;49.932;10.884;2024-02-26T16:50:06;6.73;;;2.50;;
66721;SDS011;53633;49.932;10.884;2024-02-26T16:52:36;8.23;;;2.95;;
66721;SDS011;53633;49.932;10.884;2024-02-26T16:55:06;7.60;;;2.72;;
66721;SDS011;53633;49.932;10.884;2024-02-26T16:57:34;8.02;;;2.90;;
66721;SDS011;53633;49.932;10.884;2024-02-26T17:00:04;6.15;;;2.40;;
66721;SDS011;53633;49.932;10.884;2024-02-26T17:02:38;7.23;;;2.63;;
66721;SDS011;53633;49.932;10.884;2024-02-26T17:05:05;5.80;;;2.08;;
66721;SDS011;53633;49.932;10.884;2024-02-26T17:07:32;6.20;;;2.22;;
66721;SDS011;53633;49.932;10.884;2024-02-26T17:10:00;7.07;;;2.30;;
66721;SDS011;53633;49.932;10.884;2024-02-26T17:12:29;7.30;;;2.83;;
66721;SDS011;53633;49.932;10.884;2024-02-26T17:15:00;6.33;;;1.83;;
66721;SDS011;53633;49.932;10.884;2024-02-26T17:17:27;6.85;;;2.47;;
66721;SDS011;53633;49.932;10.884;2024-02-26T17:19:54;8.75;;;2.70;;
66721;SDS011;53633;49.932;10.884;2024-02-26T17:22:21;5.72;;;1.92;;
66721;SDS011;53633;49.932;10.884;2024-02-26T17:24:51;7.55;;;2.28;;
66721;SDS011;53633;49.932;10.884;2024-02-26T17:27:19;6.40;;;2.10;;
66721;SDS011;53633;49.932;10.884;2024-02-26T17:29:53;6.97;;;1.80;;
66721;SDS011;53633;49.932;10.884;2024-02-26T17:32:20;6.60;;;2.17;;
66721;SDS011;53633;49.932;10.884;2024-02-26T17:34:47;6.43;;;1.80;;
66721;SDS011;53633;49.932;10.884;2024-02-26T17:37:16;6.47;;;2.00;;
66721;SDS011;53633;49.932;10.884;2024-02-26T17:39:45;5.53;;;1.80;;
66721;SDS011;53633;49.932;10.884;2024-02-26T17:42:12;6.85;;;2.00;;
66721;SDS011;53633;49.932;10.884;2024-02-26T17:44:39;5.93;;;2.20;;
66721;SDS011;53633;49.932;10.884;2024-02-26T17:47:09;6.20;;;1.90;;
66721;SDS011;53633;49.932;10.884;2024-02-26T17:49:35;7.05;;;2.13;;
66721;SDS011;53633;49.932;10.884;2024-02-26T17:52:07;6.33;;;1.97;;
66721;SDS011;53633;49.932;10.884;2024-02-26T17:54:35;6.25;;;1.80;;
66721;SDS011;53633;49.932;10.884;2024-02-26T17:57:02;6.38;;;2.00;;
66721;SDS011;53633;49.932;10.884;2024-02-26T17:59:29;6.88;;;2.00;;
66721;SDS011;53633;49.932;10.884;2024-02-26T18:01:56;7.05;;;1.80;;
66721;SDS011;53633;49.932;10.884;2024-02-26T18:04:24;7.70;;;1.77;;
66721;SDS011;53633;49.932;10.884;2024-02-26T18:06:51;6.53;;;1.77;;
66721;SDS011;53633;49.932;10.884;2024-02-26T18:09:18;5.22;;;1.98;;
66721;SDS011;53633;49.932;10.884;2024-02-26T18:11:48;10.30;;;2.40;;
66721;SDS011;53633;49.932;10.884;2024-02-26T18:14:15;7.30;;;2.10;;
66721;SDS011;53633;49.932;10.884;2024-02-26T18:16:42;6.20;;;1.93;;
66721;SDS011;53633;49.932;10.884;2024-02-26T18:19:09;6.63;;;2.08;;
66721;SDS011;53633;49.932;10.884;2024-02-26T18:22:00;8.77;;;1.95;;
66721;SDS011;53633;49.932;10.884;2024-02-26T18:24:35;6.60;;;2.13;;
66721;SDS011;53633;49.932;10.884;2024-02-26T18:27:07;6.25;;;2.28;;